Buffalo, WY

3:44 AM MDT on April 25, 2017 (GMT -0600)
Buffalo | | Change Station
Active Advisory: Winter Weather Advisory

Elev 4708 ft 44.34 °N, 106.70 °W | Updated 2 seconds ago

Snow
Snow Fog
33.6 °F
Feels Like 34 °F
N
0.0
Wind Variable Wind from NNW
Gusts 0.0 mph

Today
High -- | Low -- °F
--% Chance of Precip.
Yesterday
High -- | Low -- °F
Precip. -- in
Pressure 29.50 in
Visibility 0.5 miles
Clouds
Windchill 34 °F
Dew Point 33 °F
Humidity 99%
Rainfall 0.05 in
Snow Depth Not available.
6:06 AM 8:04 PM
Waning Crescent, 2% visible
METAR KBYG 250853Z AUTO 33020G30KT 1/2SM SN FG VV003 01/M01 A2954 RMK AO2 PK WND 34033/0837 SLP989 P0010 60029 T00111006 58007
Pressure 29.50 in
Visibility 0.5 miles
Clouds
Windchill 34 °F
Dew Point 33 °F
Humidity 99%
Rainfall 0.05 in
Snow Depth Not available.
6:06 AM 8:04 PM
Waning Crescent, 2% visible
METAR KBYG 250853Z AUTO 33020G30KT 1/2SM SN FG VV003 01/M01 A2954 RMK AO2 PK WND 34033/0837 SLP989 P0010 60029 T00111006 58007

Get Your Daily Forecast Email!

Thanks for signing up!

Be on the lookout for a verification email in your inbox.

You'll start receiving severe weather alerts in your inbox..

×

10-Day Weather Forecast

Almanac

Astronomy

Apr. 25, 2017 Rise Set
Actual Time
Civil Twilight
Nautical Twilight
Astronomical Twilight
Moon
Length of Visible Light
Length of Day
Tomorrow will be .
, % of the Moon is Illuminated

Today's Extremes

State Highs State Lows

Community

WunderPhotos

WunderBlog® & News

Nearby

Air Quality

  Air Quality AQ Index Pollutant
Not available.

Snow Depth

Station Depth Elevation

Earthquake Activity

City Distance Mag. Time & Date
Minimum magnitude displayed is 2.5.

Coastal Water Temperatures

Place Temperature

Stations

Nearby Weather Stations

Station Location Temp. Windchill Dew Point Humidity Wind Precip. Elev Updated Type
                   

Watches & Warnings

Winter Weather Advisory
Issued: 2:20 AM MDT Apr. 25, 2017 – National Weather Service

... Winter Weather Advisory remains in effect until 6 PM MDT this
evening...

* timing... any rain will change to snow before dawn and continue
today before ending by evening. The heaviest snow is expected
this morning.

* Total snowfall... 3 to 6 inches with locally higher amounts near
Buffalo.

* Main impact... highways will become slick and snow covered,
including interstates 25 and 90. Visibility could be reduced
to under one half mile at times in snow and blowing snow.

Precautionary/preparedness actions...

A Winter Weather Advisory for snow and blowing snow means periods
of snow and blowing snow will cause primarily travel
difficulties. Be prepared for snow covered and slick roads with
limited visibilities. Slow down, and allow extra time to reach
your destination. Check the latest Road conditions at
wyoroad.Info or by dialing 5 1 1.